Time;durP1;ratioP1;P1;durP2;ratioP2;P2;SDS_P1;SDS_P2;PMS_P1;PMS_P2;Temp;Humidity;BMP_temperature;BMP_pressure;BME280_temperature;BME280_humidity;BME280_pressure;Samples;Min_cycle;Max_cycle;Signal;HPM_P1;HPM_P2
2022/05/19 00:01:25;;;;;;;27.70;17.75;;;;;;;;;;5004115;28;20493;-64
2022/05/19 00:03:51;;;;;;;32.08;17.90;;;;;;;;;;5009320;28;20038;-64
2022/05/19 00:06:17;;;;;;;25.88;18.30;;;;;;;;;;5016764;28;20123;-64
2022/05/19 00:08:43;;;;;;;24.48;16.40;;;;;;;;;;5010733;28;20556;-64
2022/05/19 00:11:12;;;;;;;21.42;15.60;;;;;;;;;;5012266;28;20119;-64
2022/05/19 00:13:38;;;;;;;24.40;16.27;;;;;;;;;;5009532;28;20508;-64
2022/05/19 00:16:05;;;;;;;23.42;17.00;;;;;;;;;;5011236;28;20042;-64
2022/05/19 00:18:31;;;;;;;29.00;18.23;;;;;;;;;;5007631;28;20043;-64
2022/05/19 00:20:58;;;;;;;20.35;16.45;;;;;;;;;;5008831;28;20108;-64
2022/05/19 00:23:24;;;;;;;18.33;14.10;;;;;;;;;;5013746;28;20042;-64
2022/05/19 00:25:50;;;;;;;18.27;13.20;;;;;;;;;;5017621;28;20049;-64
2022/05/19 00:28:16;;;;;;;16.35;12.80;;;;;;;;;;5014247;28;20553;-64
2022/05/19 00:30:43;;;;;;;20.25;15.00;;;;;;;;;;5015509;28;20041;-64
2022/05/19 00:33:09;;;;;;;18.20;14.90;;;;;;;;;;5012404;28;20129;-64
2022/05/19 00:35:36;;;;;;;18.33;15.95;;;;;;;;;;5012086;28;20117;-64
2022/05/19 00:38:03;;;;;;;25.83;18.15;;;;;;;;;;5014247;28;20505;-64
2022/05/19 00:40:29;;;;;;;28.70;19.88;;;;;;;;;;5013963;28;20045;-64
2022/05/19 00:42:55;;;;;;;26.58;21.05;;;;;;;;;;4999922;28;20042;-63
2022/05/19 00:45:23;;;;;;;28.40;22.13;;;;;;;;;;5025659;28;20533;-64
2022/05/19 00:47:52;;;;;;;28.17;21.02;;;;;;;;;;5014537;28;20079;-63
2022/05/19 00:50:23;;;;;;;32.40;22.25;;;;;;;;;;5011481;28;20486;-64
2022/05/19 00:52:51;;;;;;;26.92;21.17;;;;;;;;;;5014337;28;20121;-64
2022/05/19 00:55:20;;;;;;;31.50;21.45;;;;;;;;;;5011762;28;20041;-64
2022/05/19 00:57:52;;;;;;;28.85;22.45;;;;;;;;;;4999335;28;20044;-63
2022/05/19 01:00:20;;;;;;;28.30;21.08;;;;;;;;;;5012115;28;20045;-63
2022/05/19 01:02:50;;;;;;;36.72;23.35;;;;;;;;;;5013148;28;20139;-64
2022/05/19 01:05:18;;;;;;;33.03;22.58;;;;;;;;;;5005567;28;21038;-64
2022/05/19 01:07:55;;;;;;;29.17;21.67;;;;;;;;;;4995019;28;20050;-64
2022/05/19 01:10:21;;;;;;;33.47;22.40;;;;;;;;;;5012499;28;20064;-63
2022/05/19 01:12:49;;;;;;;33.15;22.38;;;;;;;;;;5011655;28;20161;-64
2022/05/19 01:15:16;;;;;;;33.20;22.20;;;;;;;;;;5014454;28;20393;-64
2022/05/19 01:17:42;;;;;;;30.90;23.40;;;;;;;;;;4997854;28;20058;-64
2022/05/19 01:20:12;;;;;;;37.17;25.48;;;;;;;;;;5011092;28;20081;-63
2022/05/19 01:22:44;;;;;;;31.90;22.88;;;;;;;;;;5002296;28;20052;-63
2022/05/19 01:25:22;;;;;;;35.47;25.27;;;;;;;;;;5000668;28;20053;-64
2022/05/19 01:27:48;;;;;;;37.17;26.73;;;;;;;;;;5005336;28;21856;-64
2022/05/19 01:30:14;;;;;;;30.02;24.15;;;;;;;;;;5003075;28;20095;-64
2022/05/19 01:32:41;;;;;;;36.85;26.00;;;;;;;;;;5016573;28;20128;-64
2022/05/19 01:35:07;;;;;;;33.92;24.90;;;;;;;;;;4995705;28;20050;-64
2022/05/19 01:37:34;;;;;;;31.67;24.02;;;;;;;;;;5018295;28;20057;-63
2022/05/19 01:40:07;;;;;;;34.97;25.70;;;;;;;;;;5011856;28;20049;-64
2022/05/19 01:42:44;;;;;;;35.40;26.15;;;;;;;;;;5010642;28;20117;-64
2022/05/19 01:45:29;;;;;;;35.67;26.02;;;;;;;;;;5014749;28;20050;-64
2022/05/19 01:48:01;;;;;;;38.83;26.10;;;;;;;;;;5017723;28;20042;-63
2022/05/19 01:50:36;;;;;;;33.85;25.50;;;;;;;;;;5014766;28;20050;-64
2022/05/19 01:53:07;;;;;;;31.10;26.08;;;;;;;;;;5013254;28;20084;-64
2022/05/19 01:55:52;;;;;;;36.75;27.33;;;;;;;;;;5013637;28;20053;-64
2022/05/19 01:58:18;;;;;;;35.35;27.05;;;;;;;;;;5014801;28;20501;-64
2022/05/19 02:00:44;;;;;;;39.83;28.17;;;;;;;;;;5012533;28;20034;-64
2022/05/19 02:03:30;;;;;;;30.13;26.90;;;;;;;;;;5017044;28;20508;-64
2022/05/19 02:06:02;;;;;;;40.50;29.80;;;;;;;;;;5017217;28;20052;-64
2022/05/19 02:08:38;;;;;;;36.88;28.58;;;;;;;;;;5011932;28;20443;-63
2022/05/19 02:11:09;;;;;;;40.88;29.00;;;;;;;;;;5013916;28;20042;-64
2022/05/19 02:13:36;;;;;;;36.75;29.33;;;;;;;;;;5015088;28;20033;-64
2022/05/19 02:16:03;;;;;;;37.25;30.73;;;;;;;;;;5014776;28;20049;-64
2022/05/19 02:18:30;;;;;;;37.38;29.95;;;;;;;;;;4994334;28;20111;-64
2022/05/19 02:20:57;;;;;;;44.97;30.02;;;;;;;;;;5011598;28;20054;-64
2022/05/19 02:23:24;;;;;;;39.67;30.83;;;;;;;;;;5008431;28;20046;-64
2022/05/19 02:25:52;;;;;;;39.38;32.55;;;;;;;;;;5000361;28;20111;-64
2022/05/19 02:28:18;;;;;;;40.22;30.90;;;;;;;;;;5012584;28;20046;-64
2022/05/19 02:30:45;;;;;;;40.50;32.08;;;;;;;;;;5008466;28;20034;-64
2022/05/19 02:33:13;;;;;;;45.22;31.98;;;;;;;;;;5015015;28;20100;-64
2022/05/19 02:35:39;;;;;;;41.22;29.98;;;;;;;;;;5014673;28;20145;-63
2022/05/19 02:38:06;;;;;;;37.63;30.45;;;;;;;;;;5010744;28;20042;-64
2022/05/19 02:40:33;;;;;;;37.05;28.70;;;;;;;;;;5000130;28;20462;-64
2022/05/19 02:43:00;;;;;;;38.72;29.55;;;;;;;;;;5014232;28;20038;-64
2022/05/19 02:45:26;;;;;;;38.05;29.75;;;;;;;;;;5010415;28;20718;-64
2022/05/19 02:47:52;;;;;;;34.78;29.13;;;;;;;;;;5000903;28;20500;-64
2022/05/19 02:50:20;;;;;;;40.75;29.45;;;;;;;;;;5013353;28;20045;-63
2022/05/19 02:52:46;;;;;;;35.08;27.38;;;;;;;;;;5014389;28;20351;-64
2022/05/19 02:55:12;;;;;;;45.83;29.13;;;;;;;;;;5011980;28;20095;-63
2022/05/19 02:57:39;;;;;;;33.67;26.67;;;;;;;;;;5011944;28;20081;-64
2022/05/19 03:00:07;;;;;;;40.70;27.58;;;;;;;;;;5012866;28;20045;-64
2022/05/19 03:02:33;;;;;;;36.42;26.48;;;;;;;;;;5010893;28;20434;-64
2022/05/19 03:04:59;;;;;;;35.38;27.13;;;;;;;;;;5008975;28;20049;-63
2022/05/19 03:07:25;;;;;;;37.97;25.85;;;;;;;;;;5014719;28;20061;-64
2022/05/19 03:09:51;;;;;;;34.72;26.98;;;;;;;;;;4997120;28;20046;-64
2022/05/19 03:12:18;;;;;;;33.53;26.92;;;;;;;;;;4999348;28;20045;-64
2022/05/19 03:14:44;;;;;;;38.40;28.05;;;;;;;;;;5013393;28;20033;-64
2022/05/19 03:17:11;;;;;;;38.05;30.23;;;;;;;;;;5012954;28;20045;-64
2022/05/19 03:19:38;;;;;;;39.60;30.75;;;;;;;;;;5009765;28;20402;-64
2022/05/19 03:22:05;;;;;;;39.40;31.38;;;;;;;;;;5008137;28;20048;-64
2022/05/19 03:24:31;;;;;;;40.30;31.10;;;;;;;;;;5014472;28;20044;-64
2022/05/19 03:26:58;;;;;;;43.72;32.42;;;;;;;;;;5014789;28;20048;-64
2022/05/19 03:29:24;;;;;;;44.67;31.60;;;;;;;;;;4996097;28;20050;-64
2022/05/19 03:31:50;;;;;;;40.88;32.78;;;;;;;;;;5012343;28;20049;-63
2022/05/19 03:34:17;;;;;;;42.33;32.05;;;;;;;;;;5008451;28;20096;-64
2022/05/19 03:36:44;;;;;;;44.88;32.92;;;;;;;;;;5015029;28;20044;-64
2022/05/19 03:39:10;;;;;;;48.45;35.45;;;;;;;;;;5013146;28;20042;-64
2022/05/19 03:41:36;;;;;;;41.65;34.28;;;;;;;;;;5012000;28;20049;-64
2022/05/19 03:44:03;;;;;;;47.22;35.08;;;;;;;;;;5002144;28;20059;-64
2022/05/19 03:46:29;;;;;;;44.33;34.10;;;;;;;;;;5011613;28;20039;-63
2022/05/19 03:48:55;;;;;;;44.97;33.47;;;;;;;;;;5012296;28;20116;-64
2022/05/19 03:51:23;;;;;;;44.60;32.33;;;;;;;;;;5015824;28;20052;-64
2022/05/19 03:53:49;;;;;;;40.17;31.40;;;;;;;;;;5009273;28;20045;-63
2022/05/19 03:56:16;;;;;;;48.97;33.30;;;;;;;;;;5009950;28;20072;-64
2022/05/19 03:58:42;;;;;;;44.05;32.42;;;;;;;;;;5016311;28;20057;-64
2022/05/19 04:01:09;;;;;;;43.53;32.78;;;;;;;;;;5011039;28;20481;-64
2022/05/19 04:03:35;;;;;;;39.78;32.10;;;;;;;;;;5012745;28;20056;-64
2022/05/19 04:06:01;;;;;;;39.83;31.13;;;;;;;;;;5002621;28;20136;-64
2022/05/19 04:08:27;;;;;;;41.15;29.60;;;;;;;;;;5013228;28;20087;-63
2022/05/19 04:10:54;;;;;;;48.70;33.65;;;;;;;;;;4996559;28;20053;-64
2022/05/19 04:13:20;;;;;;;43.42;32.85;;;;;;;;;;5012609;28;20085;-63
2022/05/19 04:15:46;;;;;;;41.95;32.00;;;;;;;;;;4995704;28;20042;-64
2022/05/19 04:18:14;;;;;;;44.80;34.30;;;;;;;;;;5002780;28;20049;-64
2022/05/19 04:20:40;;;;;;;48.22;34.08;;;;;;;;;;5013432;28;20094;-64
2022/05/19 04:23:06;;;;;;;49.35;34.05;;;;;;;;;;5010477;28;20046;-64
2022/05/19 04:25:32;;;;;;;39.38;33.47;;;;;;;;;;5010505;28;20056;-64
2022/05/19 04:27:59;;;;;;;45.72;34.03;;;;;;;;;;5015302;28;20127;-64
2022/05/19 04:30:25;;;;;;;44.50;34.90;;;;;;;;;;5008477;28;20065;-64
2022/05/19 04:32:51;;;;;;;44.97;34.20;;;;;;;;;;5009047;28;20382;-64
2022/05/19 04:35:17;;;;;;;45.30;35.15;;;;;;;;;;4996844;28;20497;-64
2022/05/19 04:37:44;;;;;;;58.75;36.63;;;;;;;;;;4993639;28;20045;-63
2022/05/19 04:40:11;;;;;;;48.85;35.08;;;;;;;;;;5007724;28;20079;-64
2022/05/19 04:42:37;;;;;;;48.50;37.67;;;;;;;;;;5010878;28;20470;-64
2022/05/19 04:45:05;;;;;;;44.67;38.38;;;;;;;;;;5009304;28;20046;-64
2022/05/19 04:47:31;;;;;;;47.40;38.92;;;;;;;;;;5012758;28;20057;-63
2022/05/19 04:49:58;;;;;;;58.85;39.78;;;;;;;;;;5014375;28;21187;-64
2022/05/19 04:52:24;;;;;;;51.35;39.83;;;;;;;;;;5013004;28;20120;-63
2022/05/19 04:54:50;;;;;;;53.38;40.25;;;;;;;;;;5006863;28;20057;-65
2022/05/19 04:57:16;;;;;;;55.13;40.45;;;;;;;;;;5015964;28;20056;-64
2022/05/19 04:59:43;;;;;;;54.00;38.75;;;;;;;;;;5017800;28;20104;-63
2022/05/19 05:02:10;;;;;;;50.10;38.85;;;;;;;;;;5021178;28;20037;-63
2022/05/19 05:04:36;;;;;;;55.33;40.70;;;;;;;;;;5016427;28;20128;-64
2022/05/19 05:07:02;;;;;;;48.58;39.28;;;;;;;;;;5020816;28;20515;-64
2022/05/19 05:09:28;;;;;;;52.65;39.28;;;;;;;;;;5020960;28;20056;-64
2022/05/19 05:11:54;;;;;;;54.38;39.47;;;;;;;;;;5022457;28;20041;-65
2022/05/19 05:14:20;;;;;;;48.38;37.15;;;;;;;;;;5014902;28;20053;-65
2022/05/19 05:16:48;;;;;;;46.35;36.60;;;;;;;;;;5014291;28;20330;-66
2022/05/19 05:19:18;;;;;;;57.00;37.30;;;;;;;;;;5020326;28;20069;-64
2022/05/19 05:21:45;;;;;;;58.30;41.75;;;;;;;;;;5018656;28;20053;-65
2022/05/19 05:24:11;;;;;;;47.97;38.20;;;;;;;;;;5019207;28;20042;-64
2022/05/19 05:26:37;;;;;;;49.47;36.92;;;;;;;;;;4995094;28;20045;-65
2022/05/19 05:29:03;;;;;;;53.17;35.97;;;;;;;;;;5015326;28;20030;-65
2022/05/19 05:31:30;;;;;;;46.72;35.83;;;;;;;;;;5021114;28;20070;-64
2022/05/19 05:33:56;;;;;;;48.05;37.40;;;;;;;;;;5014787;28;20049;-65
2022/05/19 05:36:22;;;;;;;42.60;35.95;;;;;;;;;;4998737;28;20057;-64
2022/05/19 05:38:48;;;;;;;45.42;37.85;;;;;;;;;;5013653;28;20080;-65
2022/05/19 05:41:16;;;;;;;48.95;37.97;;;;;;;;;;5012721;28;20058;-65
2022/05/19 05:43:42;;;;;;;48.67;37.10;;;;;;;;;;5014227;28;20038;-65
2022/05/19 05:46:11;;;;;;;48.67;36.97;;;;;;;;;;5013565;28;20103;-65
2022/05/19 05:48:37;;;;;;;50.17;37.50;;;;;;;;;;5013834;28;20041;-65
2022/05/19 05:51:04;;;;;;;52.83;38.78;;;;;;;;;;5013065;28;20061;-65
2022/05/19 05:53:30;;;;;;;52.85;39.63;;;;;;;;;;5014789;28;20452;-65
2022/05/19 05:55:57;;;;;;;56.65;42.53;;;;;;;;;;5012702;28;20144;-64
2022/05/19 05:58:23;;;;;;;54.13;40.83;;;;;;;;;;5012973;28;20203;-64
2022/05/19 06:00:49;;;;;;;75.03;47.03;;;;;;;;;;5011885;28;20112;-64
2022/05/19 06:03:15;;;;;;;64.25;44.78;;;;;;;;;;5002687;28;20049;-64
2022/05/19 06:05:42;;;;;;;62.55;47.70;;;;;;;;;;5013698;28;20045;-64
2022/05/19 06:08:09;;;;;;;61.58;47.97;;;;;;;;;;4999300;28;20064;-64
2022/05/19 06:10:36;;;;;;;67.80;47.08;;;;;;;;;;5013269;28;20054;-64
2022/05/19 06:13:02;;;;;;;67.00;46.83;;;;;;;;;;5012654;28;20094;-64
2022/05/19 06:15:29;;;;;;;67.88;49.80;;;;;;;;;;5012752;28;20049;-64
2022/05/19 06:17:55;;;;;;;65.50;52.53;;;;;;;;;;5013025;28;20144;-64
2022/05/19 06:20:21;;;;;;;62.95;49.33;;;;;;;;;;5012618;28;20077;-64
2022/05/19 06:22:48;;;;;;;59.95;45.83;;;;;;;;;;5012789;28;20041;-64
2022/05/19 06:25:16;;;;;;;64.72;45.85;;;;;;;;;;5014522;28;20053;-64
2022/05/19 06:27:43;;;;;;;64.05;47.47;;;;;;;;;;5015049;28;20041;-64
2022/05/19 06:30:12;;;;;;;68.80;48.22;;;;;;;;;;5013952;28;20050;-64
2022/05/19 06:32:39;;;;;;;66.20;45.20;;;;;;;;;;5016109;28;20049;-63
2022/05/19 06:35:06;;;;;;;62.72;42.10;;;;;;;;;;5018485;28;20523;-64
2022/05/19 06:37:32;;;;;;;59.92;41.08;;;;;;;;;;5013700;28;20038;-63
2022/05/19 06:39:58;;;;;;;69.70;43.97;;;;;;;;;;5014790;28;20133;-64
2022/05/19 06:42:25;;;;;;;61.58;42.30;;;;;;;;;;4995720;28;20409;-63
2022/05/19 06:44:51;;;;;;;68.93;42.08;;;;;;;;;;5016700;28;20068;-63
2022/05/19 06:47:17;;;;;;;69.55;39.50;;;;;;;;;;5020249;28;20037;-63
2022/05/19 06:49:44;;;;;;;60.70;37.67;;;;;;;;;;5019425;28;20465;-63
2022/05/19 06:52:13;;;;;;;57.33;38.30;;;;;;;;;;5014377;28;20084;-63
2022/05/19 06:54:40;;;;;;;66.05;36.85;;;;;;;;;;5017095;28;20485;-63
2022/05/19 06:57:06;;;;;;;56.45;37.22;;;;;;;;;;5014525;28;20121;-63
2022/05/19 06:59:32;;;;;;;58.78;35.58;;;;;;;;;;5016377;28;20047;-63
2022/05/19 07:02:00;;;;;;;73.53;38.53;;;;;;;;;;5013988;28;20442;-63
2022/05/19 07:04:26;;;;;;;66.32;39.67;;;;;;;;;;5014617;28;20124;-63
2022/05/19 07:06:52;;;;;;;70.82;40.15;;;;;;;;;;5013881;28;20042;-62
2022/05/19 07:09:18;;;;;;;65.00;41.15;;;;;;;;;;5014096;28;20050;-64
2022/05/19 07:11:45;;;;;;;65.85;42.70;;;;;;;;;;5011002;28;20089;-64
2022/05/19 07:14:11;;;;;;;69.15;43.05;;;;;;;;;;5013305;28;20044;-64
2022/05/19 07:16:37;;;;;;;67.82;45.58;;;;;;;;;;5023439;28;20389;-64
2022/05/19 07:21:49;;;;;;;67.03;44.67;;;;;;;;;;5032808;28;20049;-64
2022/05/19 07:24:17;;;;;;;66.07;43.08;;;;;;;;;;5032867;28;20473;-64
2022/05/19 07:26:43;;;;;;;67.32;42.10;;;;;;;;;;5023287;28;20057;-64
2022/05/19 07:29:10;;;;;;;59.83;40.90;;;;;;;;;;5013056;28;20492;-64
2022/05/19 07:31:36;;;;;;;59.03;42.15;;;;;;;;;;5013089;28;20338;-63
2022/05/19 07:34:03;;;;;;;60.10;42.33;;;;;;;;;;5011704;28;20092;-64
2022/05/19 07:36:30;;;;;;;61.92;39.45;;;;;;;;;;5016221;28;20041;-64
2022/05/19 07:38:56;;;;;;;53.85;37.30;;;;;;;;;;5032523;28;20045;-64
2022/05/19 07:41:23;;;;;;;63.88;41.47;;;;;;;;;;5031749;28;20460;-63
2022/05/19 07:43:49;;;;;;;53.25;39.35;;;;;;;;;;5032438;28;20046;-64
2022/05/19 07:46:16;;;;;;;53.50;37.20;;;;;;;;;;5032315;28;20045;-64
2022/05/19 07:48:42;;;;;;;53.97;36.17;;;;;;;;;;5012487;28;20045;-64
2022/05/19 07:51:08;;;;;;;56.13;36.75;;;;;;;;;;5012722;28;20106;-64
2022/05/19 07:53:34;;;;;;;51.90;31.15;;;;;;;;;;5012667;28;20060;-64
2022/05/19 07:56:00;;;;;;;55.38;34.47;;;;;;;;;;4993978;28;20401;-64
2022/05/19 07:58:29;;;;;;;51.45;30.70;;;;;;;;;;5025845;28;20131;-64
2022/05/19 08:00:55;;;;;;;59.95;31.45;;;;;;;;;;5013790;28;20041;-64
2022/05/19 08:03:23;;;;;;;55.80;27.23;;;;;;;;;;5032198;28;20119;-64
2022/05/19 08:05:49;;;;;;;54.25;28.45;;;;;;;;;;5032022;28;20473;-64
2022/05/19 08:08:16;;;;;;;52.53;25.48;;;;;;;;;;5022130;28;20461;-64
2022/05/19 08:10:42;;;;;;;45.70;23.70;;;;;;;;;;5012210;28;20552;-64
2022/05/19 08:15:53;;;;;;;48.35;25.45;;;;;;;;;;5011351;28;20060;-64
2022/05/19 08:18:20;;;;;;;54.17;26.30;;;;;;;;;;5018624;28;20393;-63
2022/05/19 08:20:48;;;;;;;46.08;23.67;;;;;;;;;;5032198;28;20436;-63
2022/05/19 08:23:17;;;;;;;46.60;24.38;;;;;;;;;;5032839;28;20045;-63
2022/05/19 08:25:43;;;;;;;55.20;25.42;;;;;;;;;;5034233;28;20469;-63
2022/05/19 08:28:13;;;;;;;52.88;24.67;;;;;;;;;;5035992;28;20045;-63
2022/05/19 08:30:40;;;;;;;48.88;23.98;;;;;;;;;;5035311;28;20068;-63
2022/05/19 08:33:06;;;;;;;42.60;22.75;;;;;;;;;;5035997;28;20072;-63
2022/05/19 08:35:33;;;;;;;40.85;22.80;;;;;;;;;;5017001;28;20129;-63
2022/05/19 08:37:59;;;;;;;47.85;23.35;;;;;;;;;;5035054;28;20064;-63
2022/05/19 08:40:25;;;;;;;48.00;23.35;;;;;;;;;;5035598;28;20103;-63
2022/05/19 08:42:56;;;;;;;50.30;22.90;;;;;;;;;;5035580;28;20038;-63
2022/05/19 08:45:28;;;;;;;40.35;20.90;;;;;;;;;;5034295;28;20033;-63
2022/05/19 08:48:00;;;;;;;43.15;21.67;;;;;;;;;;5035727;28;20041;-63
2022/05/19 08:50:34;;;;;;;56.22;24.20;;;;;;;;;;5034816;28;20045;-63
2022/05/19 08:53:00;;;;;;;50.30;22.45;;;;;;;;;;5035565;28;20486;-63
2022/05/19 08:55:31;;;;;;;46.03;20.70;;;;;;;;;;5032947;28;20089;-63
2022/05/19 08:58:02;;;;;;;39.05;20.58;;;;;;;;;;5015037;28;20116;-63
2022/05/19 09:00:33;;;;;;;42.40;21.60;;;;;;;;;;5015657;28;20052;-63
2022/05/19 09:03:16;;;;;;;38.58;20.13;;;;;;;;;;5015478;28;20449;-63
2022/05/19 09:05:45;;;;;;;39.97;21.17;;;;;;;;;;5015323;28;20188;-63
2022/05/19 09:08:23;;;;;;;40.10;21.73;;;;;;;;;;5035347;28;20516;-63
2022/05/19 09:10:58;;;;;;;44.45;22.80;;;;;;;;;;5035292;28;20042;-63
2022/05/19 09:13:25;;;;;;;38.28;21.17;;;;;;;;;;5000800;28;20049;-63
2022/05/19 09:15:52;;;;;;;41.03;20.60;;;;;;;;;;5035123;28;20068;-63
2022/05/19 09:18:20;;;;;;;44.75;23.35;;;;;;;;;;5015314;28;20585;-63
2022/05/19 09:20:54;;;;;;;36.00;20.02;;;;;;;;;;5015295;28;20117;-63
2022/05/19 09:23:20;;;;;;;39.53;20.25;;;;;;;;;;5015302;28;20052;-63
2022/05/19 09:25:49;;;;;;;32.38;20.13;;;;;;;;;;5014478;28;20048;-63
2022/05/19 09:28:16;;;;;;;36.42;20.85;;;;;;;;;;5030154;28;20056;-63
2022/05/19 09:30:51;;;;;;;39.17;22.02;;;;;;;;;;5034746;28;20046;-63
2022/05/19 09:33:19;;;;;;;37.33;20.00;;;;;;;;;;5033822;28;20048;-63
2022/05/19 09:35:50;;;;;;;32.20;19.38;;;;;;;;;;5034518;28;20100;-63
2022/05/19 09:38:36;;;;;;;36.40;21.42;;;;;;;;;;5016751;28;20088;-63
2022/05/19 09:41:05;;;;;;;32.25;19.80;;;;;;;;;;5015875;28;20489;-63
2022/05/19 09:43:34;;;;;;;28.85;18.10;;;;;;;;;;5035190;28;20041;-63
2022/05/19 09:46:04;;;;;;;29.50;20.10;;;;;;;;;;5034649;28;20053;-63
2022/05/19 09:48:33;;;;;;;36.47;21.70;;;;;;;;;;5022213;28;20064;-63
2022/05/19 09:51:03;;;;;;;27.45;18.58;;;;;;;;;;5014761;28;20760;-63
2022/05/19 09:53:30;;;;;;;33.67;20.63;;;;;;;;;;5013805;28;20046;-63
2022/05/19 09:56:00;;;;;;;34.15;20.92;;;;;;;;;;4997165;28;20054;-63
2022/05/19 09:58:30;;;;;;;32.35;18.15;;;;;;;;;;5022686;28;20105;-63
2022/05/19 10:01:00;;;;;;;29.63;16.75;;;;;;;;;;5033484;28;20129;-63
2022/05/19 10:03:29;;;;;;;29.17;18.50;;;;;;;;;;5034618;28;20037;-63
2022/05/19 10:05:57;;;;;;;29.15;18.17;;;;;;;;;;5034177;28;20042;-63
2022/05/19 10:08:35;;;;;;;27.92;17.25;;;;;;;;;;4999454;28;20120;-63
2022/05/19 10:11:03;;;;;;;26.52;17.15;;;;;;;;;;5034261;28;20049;-63
2022/05/19 10:13:37;;;;;;;26.33;17.25;;;;;;;;;;5016417;28;20392;-63
2022/05/19 10:16:07;;;;;;;31.13;18.08;;;;;;;;;;5033208;28;20045;-63
2022/05/19 10:18:39;;;;;;;29.77;19.10;;;;;;;;;;5030516;28;20081;-63
2022/05/19 10:21:12;;;;;;;26.35;16.75;;;;;;;;;;5014309;28;20088;-63
2022/05/19 10:23:39;;;;;;;19.60;16.07;;;;;;;;;;5013369;28;20046;-63
2022/05/19 10:26:15;;;;;;;23.98;15.65;;;;;;;;;;5014167;28;20176;-63
2022/05/19 10:31:48;;;;;;;19.58;14.75;;;;;;;;;;5033883;28;20069;-63
2022/05/19 10:34:15;;;;;;;19.50;13.82;;;;;;;;;;5033404;28;20137;-63
2022/05/19 10:36:48;;;;;;;18.42;14.25;;;;;;;;;;5032755;28;20505;-63
2022/05/19 10:39:26;;;;;;;19.73;14.50;;;;;;;;;;5030669;28;20128;-63
2022/05/19 10:42:01;;;;;;;22.23;15.60;;;;;;;;;;5013891;28;20378;-63
2022/05/19 10:44:36;;;;;;;18.85;13.82;;;;;;;;;;5012979;28;20046;-63
2022/05/19 10:47:09;;;;;;;22.70;15.23;;;;;;;;;;5012919;28;20100;-63
2022/05/19 10:49:35;;;;;;;;;;;;;;;;;;5015082;28;20046;-63
2022/05/19 10:52:26;;;;;;;15.27;13.52;;;;;;;;;;5012620;28;20038;-63
2022/05/19 10:54:52;;;;;;;15.65;13.15;;;;;;;;;;5013690;28;20053;-63
2022/05/19 10:57:31;;;;;;;21.83;13.80;;;;;;;;;;5012790;28;20050;-63
2022/05/19 11:00:05;;;;;;;17.02;14.48;;;;;;;;;;5015591;28;20457;-63
2022/05/19 11:02:47;;;;;;;23.73;14.68;;;;;;;;;;5033066;28;20168;-64
2022/05/19 11:05:13;;;;;;;16.60;13.30;;;;;;;;;;5032334;28;20132;-63
2022/05/19 11:07:48;;;;;;;16.73;12.85;;;;;;;;;;5033177;28;20076;-63
2022/05/19 11:10:27;;;;;;;18.73;12.68;;;;;;;;;;5030756;28;20057;-64
2022/05/19 11:12:59;;;;;;;17.90;13.02;;;;;;;;;;5012305;28;20042;-64
2022/05/19 11:15:36;;;;;;;18.03;12.67;;;;;;;;;;5013507;28;20042;-64
2022/05/19 11:18:16;;;;;;;16.65;12.60;;;;;;;;;;5012286;28;20280;-63
2022/05/19 11:21:00;;;;;;;13.98;10.73;;;;;;;;;;5015598;28;20508;-63
2022/05/19 11:23:45;;;;;;;13.35;10.40;;;;;;;;;;5032658;28;20045;-63
2022/05/19 11:26:31;;;;;;;11.10;9.93;;;;;;;;;;5032072;28;20115;-63
2022/05/19 11:28:57;;;;;;;13.88;10.15;;;;;;;;;;5023610;28;20053;-63
2022/05/19 11:31:44;;;;;;;14.95;9.80;;;;;;;;;;5020812;28;20429;-62
2022/05/19 11:34:23;;;;;;;12.48;8.25;;;;;;;;;;5018479;28;20120;-63
2022/05/19 11:36:58;;;;;;;12.90;9.93;;;;;;;;;;5016596;28;20065;-62
2022/05/19 11:39:29;;;;;;;17.33;11.32;;;;;;;;;;5009600;28;20068;-63
2022/05/19 11:41:57;;;;;;;10.88;9.77;;;;;;;;;;5010535;28;20060;-63
2022/05/19 11:44:26;;;;;;;13.45;10.43;;;;;;;;;;5010106;28;20095;-62
2022/05/19 11:46:59;;;;;;;14.05;9.73;;;;;;;;;;5012725;28;20559;-62
2022/05/19 11:55:21;;;;;;;12.65;9.65;;;;;;;;;;5001473;28;20473;-62
2022/05/19 11:58:09;;;;;;;15.57;10.30;;;;;;;;;;5012462;28;20041;-62
2022/05/19 12:00:40;;;;;;;16.33;11.20;;;;;;;;;;5010321;28;20386;-63
2022/05/19 12:03:24;;;;;;;19.42;12.88;;;;;;;;;;5011605;28;20447;-63
2022/05/19 12:05:52;;;;;;;19.85;13.18;;;;;;;;;;5013233;28;20379;-63
2022/05/19 12:08:21;;;;;;;17.95;14.70;;;;;;;;;;5011594;28;20057;-63
2022/05/19 12:10:49;;;;;;;21.63;16.20;;;;;;;;;;5012320;28;20120;-63
2022/05/19 12:13:19;;;;;;;20.23;16.40;;;;;;;;;;5012371;28;20389;-63
2022/05/19 12:15:56;;;;;;;19.30;17.40;;;;;;;;;;4996149;28;20108;-63
2022/05/19 12:18:23;;;;;;;26.17;18.75;;;;;;;;;;5012249;28;20253;-64
2022/05/19 12:20:51;;;;;;;32.70;21.73;;;;;;;;;;5008649;28;20049;-63
2022/05/19 12:23:19;;;;;;;33.63;21.17;;;;;;;;;;5008524;28;20037;-63
2022/05/19 12:25:46;;;;;;;43.33;21.55;;;;;;;;;;4995627;28;20046;-70
2022/05/19 12:28:14;;;;;;;53.97;28.38;;;;;;;;;;4994420;28;20103;-62
2022/05/19 12:33:29;;;;;;;33.33;24.27;;;;;;;;;;5013210;28;20057;-63
2022/05/19 12:35:59;;;;;;;33.70;22.90;;;;;;;;;;5011593;28;20087;-61
2022/05/19 12:38:28;;;;;;;93.90;33.03;;;;;;;;;;5012607;28;20121;-62
2022/05/19 12:40:55;;;;;;;27.73;20.55;;;;;;;;;;5012329;28;20053;-62
2022/05/19 12:43:21;;;;;;;40.53;20.40;;;;;;;;;;5008764;28;20034;-63
2022/05/19 12:45:52;;;;;;;25.13;20.73;;;;;;;;;;5007905;28;20049;-62
2022/05/19 12:48:21;;;;;;;32.28;19.58;;;;;;;;;;5009807;28;20136;-62
2022/05/19 12:51:08;;;;;;;20.73;14.77;;;;;;;;;;5010222;28;20052;-63
2022/05/19 12:53:40;;;;;;;31.38;15.50;;;;;;;;;;5014158;28;20140;-62
2022/05/19 12:56:07;;;;;;;13.98;9.10;;;;;;;;;;5014140;28;20045;-63
2022/05/19 12:58:37;;;;;;;11.60;7.90;;;;;;;;;;5009854;28;20044;-62
2022/05/19 13:01:09;;;;;;;12.40;9.10;;;;;;;;;;5008349;28;20406;-62
2022/05/19 13:03:37;;;;;;;11.77;9.60;;;;;;;;;;4997472;28;20575;-62
2022/05/19 13:06:05;;;;;;;12.65;9.45;;;;;;;;;;5011108;28;20041;-62
2022/05/19 13:08:33;;;;;;;15.75;9.98;;;;;;;;;;5011300;28;20057;-62
2022/05/19 13:11:03;;;;;;;17.58;10.00;;;;;;;;;;5009832;28;20078;-62
2022/05/19 13:13:29;;;;;;;17.27;10.77;;;;;;;;;;4998588;28;20508;-62
2022/05/19 13:15:57;;;;;;;14.52;9.52;;;;;;;;;;5013044;28;20446;-62
2022/05/19 13:18:31;;;;;;;13.35;8.90;;;;;;;;;;5012880;28;20042;-62
2022/05/19 13:21:08;;;;;;;14.30;8.07;;;;;;;;;;5015442;28;21526;-62
2022/05/19 13:23:37;;;;;;;18.00;9.15;;;;;;;;;;5020026;28;20054;-62
2022/05/19 13:26:08;;;;;;;14.98;9.20;;;;;;;;;;5006691;28;20056;-62
2022/05/19 13:31:20;;;;;;;17.23;10.00;;;;;;;;;;5012200;28;20738;-62
2022/05/19 13:33:48;;;;;;;10.48;7.40;;;;;;;;;;5015098;28;20096;-62
2022/05/19 13:36:15;;;;;;;12.18;7.50;;;;;;;;;;5021020;28;20142;-62
2022/05/19 13:38:41;;;;;;;12.75;8.45;;;;;;;;;;5016884;28;20056;-62
2022/05/19 13:41:11;;;;;;;13.38;9.07;;;;;;;;;;5019625;28;20073;-62
2022/05/19 13:43:45;;;;;;;13.77;10.07;;;;;;;;;;5014356;28;20137;-62
2022/05/19 13:46:14;;;;;;;14.90;10.52;;;;;;;;;;5012811;28;20060;-62
2022/05/19 13:48:44;;;;;;;17.92;10.38;;;;;;;;;;5021312;28;20049;-61
2022/05/19 13:51:11;;;;;;;14.65;10.98;;;;;;;;;;5019493;28;20138;-62
2022/05/19 13:53:37;;;;;;;17.00;11.50;;;;;;;;;;5019434;28;20861;-61
2022/05/19 13:56:04;;;;;;;13.20;10.00;;;;;;;;;;5017834;28;20826;-62
2022/05/19 13:58:31;;;;;;;16.33;11.32;;;;;;;;;;5022131;28;20108;-62
2022/05/19 14:00:57;;;;;;;16.13;12.60;;;;;;;;;;5017472;28;20064;-62
2022/05/19 14:03:23;;;;;;;14.40;10.75;;;;;;;;;;5024377;28;20044;-62
2022/05/19 14:05:51;;;;;;;19.10;11.73;;;;;;;;;;5018062;28;20065;-62
2022/05/19 14:08:20;;;;;;;18.23;11.75;;;;;;;;;;5014448;28;20038;-63
2022/05/19 14:10:49;;;;;;;14.75;12.77;;;;;;;;;;5017169;28;20144;-62
2022/05/19 14:13:16;;;;;;;16.58;11.60;;;;;;;;;;5017313;28;20084;-63
2022/05/19 14:15:56;;;;;;;16.13;12.30;;;;;;;;;;5012038;28;20084;-62
2022/05/19 14:18:24;;;;;;;20.20;13.25;;;;;;;;;;5015180;28;20033;-62
2022/05/19 14:20:56;;;;;;;19.25;11.18;;;;;;;;;;5015016;28;20349;-63
2022/05/19 14:23:25;;;;;;;15.77;11.52;;;;;;;;;;5023422;28;20355;-62
2022/05/19 14:25:54;;;;;;;15.57;11.57;;;;;;;;;;5028706;28;20390;-62
2022/05/19 14:28:27;;;;;;;16.13;10.02;;;;;;;;;;5017715;28;20044;-62
2022/05/19 14:30:55;;;;;;;12.80;10.57;;;;;;;;;;5019893;28;20045;-63
2022/05/19 14:33:25;;;;;;;13.05;9.45;;;;;;;;;;5023828;28;20044;-62
2022/05/19 14:35:55;;;;;;;13.45;9.18;;;;;;;;;;5013446;28;20053;-61
2022/05/19 14:38:31;;;;;;;14.02;10.02;;;;;;;;;;5016397;28;20065;-62
2022/05/19 14:43:49;;;;;;;14.20;9.23;;;;;;;;;;5013637;28;20050;-62
2022/05/19 14:46:18;;;;;;;11.48;8.07;;;;;;;;;;5017513;28;20129;-62
2022/05/19 14:48:48;;;;;;;10.18;8.60;;;;;;;;;;5018452;28;20042;-62
2022/05/19 14:51:19;;;;;;;13.95;8.52;;;;;;;;;;5019779;28;20056;-62